Time;durP1;ratioP1;P1;durP2;ratioP2;P2;SDS_P1;SDS_P2;PMS_P1;PMS_P2;Temp;Humidity;BMP_temperature;BMP_pressure;BME280_temperature;BME280_humidity;BME280_pressure;Samples;Min_cycle;Max_cycle;Signal;HPM_P1;HPM_P2
2022/01/22 00:00:00;;;;;;;30.52;2.47;;;5.50;48.90;;;;;;5056956;28;20192;-79
2022/01/22 00:02:25;;;;;;;65.87;2.90;;;5.90;46.60;;;;;;5057753;28;20202;-80
2022/01/22 00:04:51;;;;;;;49.83;2.17;;;;;;;;;;5058214;28;20251;-80
2022/01/22 00:07:17;;;;;;;60.22;2.40;;;;;;;;;;5057854;28;20176;-81
2022/01/22 00:09:50;;;;;;;45.27;2.30;;;;;;;;;;5057539;28;20587;-80
2022/01/22 00:12:29;;;;;;;63.70;2.92;;;6.20;45.40;;;;;;5057833;28;20462;-80
2022/01/22 00:14:56;;;;;;;23.33;1.77;;;;;;;;;;5058108;28;20271;-80
2022/01/22 00:17:21;;;;;;;60.50;2.60;;;;;;;;;;5057230;28;20183;-82
2022/01/22 00:19:47;;;;;;;39.88;2.33;;;;;;;;;;5057928;28;20196;-80
2022/01/22 00:22:14;;;;;;;24.40;2.10;;;;;;;;;;5057462;28;20191;-80
2022/01/22 00:24:40;;;;;;;77.55;2.95;;;;;;;;;;5052091;28;20926;-80
2022/01/22 00:27:06;;;;;;;38.92;2.45;;;6.00;45.20;;;;;;5063042;28;20178;-80
2022/01/22 00:29:32;;;;;;;74.10;2.63;;;;;;;;;;5062048;28;20287;-80
2022/01/22 00:31:58;;;;;;;61.70;2.58;;;;;;;;;;5057231;28;20258;-81
2022/01/22 00:34:24;;;;;;;55.47;2.25;;;;;;;;;;5089373;28;20180;-80
2022/01/22 00:36:50;;;;;;;84.10;3.22;;;;;;;;;;5057030;28;20184;-80
2022/01/22 00:39:16;;;;;;;46.20;2.13;;;;;;;;;;5063944;28;20202;-79
2022/01/22 00:41:42;;;;;;;60.35;2.65;;;;;;;;;;5080485;28;20194;-80
2022/01/22 00:44:08;;;;;;;45.70;2.20;;;;;;;;;;5079901;28;20180;-79
2022/01/22 00:46:34;;;;;;;58.60;2.67;;;;;;;;;;5055676;28;20180;-79
2022/01/22 00:49:00;;;;;;;95.00;3.20;;;;;;;;;;5056867;28;20648;-80
2022/01/22 00:51:26;;;;;;;74.88;3.10;;;;;;;;;;5056722;28;20573;-79
2022/01/22 00:53:52;;;;;;;49.80;2.23;;;;;;;;;;5056608;28;20180;-80
2022/01/22 00:56:18;;;;;;;70.80;2.85;;;;;;;;;;5055980;28;20480;-79
2022/01/22 00:58:44;;;;;;;65.55;2.50;;;;;;;;;;5056312;28;20183;-79
2022/01/22 01:01:10;;;;;;;93.53;3.30;;;;;;;;;;5056245;28;20295;-79
2022/01/22 01:03:37;;;;;;;65.00;3.45;;;;;;;;;;5056454;28;20206;-79
2022/01/22 01:06:04;;;;;;;150.27;4.75;;;;;;;;;;5055861;28;20199;-80
2022/01/22 01:08:33;;;;;;;100.18;4.50;;;5.80;46.00;;;;;;5056122;28;20195;-79
2022/01/22 01:11:00;;;;;;;65.03;2.55;;;;;;;;;;5055987;28;20243;-79
2022/01/22 01:13:28;;;;;;;84.57;3.85;;;5.90;45.40;;;;;;5055954;28;20179;-80
2022/01/22 01:16:13;;;;;;;47.47;2.35;;;;;;;;;;5056444;28;20184;-80
2022/01/22 01:32:29;;;;;;;49.22;3.80;;;5.70;47.30;;;;;;5056005;28;20772;-79
2022/01/22 01:34:57;;;;;;;105.10;3.75;;;;;;;;;;5047332;28;20275;-79
2022/01/22 01:37:23;;;;;;;56.97;2.35;;;5.00;49.90;;;;;;5085404;28;20196;-81
2022/01/22 01:39:53;;;;;;;145.57;4.50;;;;;;;;;;5065517;28;20721;-79
2022/01/22 01:43:07;;;;;;;89.00;2.95;;;4.70;52.80;;;;;;5054676;28;20172;-79
2022/01/22 01:45:06;;;;;;;69.47;3.58;;;5.50;48.20;;;;;;5051656;28;20186;-79
2022/01/22 01:47:33;;;;;;;71.18;3.10;;;;;;;;;;5054557;28;20172;-80
2022/01/22 01:49:59;;;;;;;66.72;2.70;;;;;;;;;;5054874;28;20199;-80
2022/01/22 01:52:38;;;;;;;94.55;3.22;;;5.00;48.90;;;;;;5060183;28;20218;-79
2022/01/22 01:55:11;;;;;;;63.65;3.00;;;;;;;;;;5054737;28;20164;-79
2022/01/22 01:57:38;;;;;;;53.00;2.40;;;;;;;;;;5053831;28;20184;-79
2022/01/22 02:00:09;;;;;;;62.70;2.88;;;4.70;50.60;;;;;;5054484;28;20446;-79
2022/01/22 02:02:36;;;;;;;47.78;2.42;;;4.90;50.60;;;;;;5055156;28;20223;-80
2022/01/22 02:05:02;;;;;;;61.92;2.47;;;;;;;;;;5054087;28;20184;-80
2022/01/22 02:07:28;;;;;;;64.03;2.38;;;;;;;;;;5053554;28;20233;-80
2022/01/22 02:09:54;;;;;;;61.20;2.50;;;;;;;;;;5053792;28;20204;-80
2022/01/22 02:12:48;;;;;;;81.30;3.20;;;;;;;;;;5054523;28;20199;-80
2022/01/22 02:23:35;;;;;;;101.85;3.67;;;5.40;47.90;;;;;;5054663;28;20175;-80
2022/01/22 02:26:01;;;;;;;41.58;2.50;;;;;;;;;;5047091;28;20184;-80
2022/01/22 02:28:27;;;;;;;95.50;3.30;;;;;;;;;;5059686;28;20592;-80
2022/01/22 02:31:01;;;;;;;45.83;2.20;;;;;;;;;;5060110;28;20195;-80
2022/01/22 02:33:44;;;;;;;128.73;4.00;;;;;;;;;;5053407;28;20164;-80
2022/01/22 02:41:23;;;;;;;54.00;2.30;;;5.00;48.80;;;;;;5054631;28;20202;-80
2022/01/22 02:43:49;;;;;;;57.03;2.35;;;;;;;;;;5053840;28;20279;-79
2022/01/22 02:46:18;;;;;;;98.72;3.55;;;5.20;48.00;;;;;;5054187;28;20180;-80
2022/01/22 02:48:44;;;;;;;82.28;2.85;;;;;;;;;;5053699;28;20183;-79
2022/01/22 02:51:10;;;;;;;53.72;2.35;;;;;;;;;;5053886;28;20252;-79
2022/01/22 02:53:36;;;;;;;77.80;2.88;;;;;;;;;;5054923;28;20176;-80
2022/01/22 02:56:02;;;;;;;56.70;2.97;;;;;;;;;;5054657;28;20660;-80
2022/01/22 02:58:28;;;;;;;63.92;3.70;;;4.80;49.40;;;;;;5054782;28;20377;-80
2022/01/22 03:00:54;;;;;;;43.03;2.10;;;5.00;48.60;;;;;;5053493;28;20219;-79
2022/01/22 03:03:20;;;;;;;48.05;2.15;;;;;;;;;;5054383;28;20420;-79
2022/01/22 03:05:46;;;;;;;47.78;2.10;;;;;;;;;;5054600;28;20198;-79
2022/01/22 03:08:14;;;;;;;64.30;3.35;;;;;;;;;;5054469;28;20180;-79
2022/01/22 03:10:43;;;;;;;57.17;2.40;;;6.20;43.80;;;;;;5078929;28;20207;-79
2022/01/22 03:18:19;;;;;;;70.63;3.00;;;6.30;42.70;;;;;;5056190;28;20623;-79
2022/01/22 03:28:58;;;;;;;67.53;2.88;;;6.20;42.80;;;;;;5051391;28;20218;-79
2022/01/22 03:31:24;;;;;;;32.38;2.03;;;6.40;42.10;;;;;;5058320;28;20195;-79
2022/01/22 03:33:50;;;;;;;62.28;2.67;;;6.30;43.00;;;;;;5057465;28;20558;-79
2022/01/22 03:36:15;;;;;;;39.50;2.23;;;6.10;43.00;;;;;;5057266;28;20169;-79
2022/01/22 03:38:42;;;;;;;78.20;3.43;;;6.30;42.30;;;;;;5057513;28;20176;-79
2022/01/22 03:41:08;;;;;;;44.33;2.17;;;6.20;42.40;;;;;;5057731;28;20222;-79
2022/01/22 03:43:34;;;;;;;59.13;2.38;;;;;;;;;;5056985;28;20180;-79
2022/01/22 03:46:00;;;;;;;122.18;5.05;;;;;;;;;;5057322;28;20401;-79
2022/01/22 03:48:26;;;;;;;112.10;3.30;;;6.00;43.00;;;;;;5057236;28;20710;-79
2022/01/22 03:50:53;;;;;;;52.77;2.43;;;;;;;;;;5057288;28;20229;-79
2022/01/22 03:53:19;;;;;;;48.00;2.05;;;;;;;;;;5059229;28;20175;-79
2022/01/22 03:58:11;;;;;;;50.28;2.15;;;;;;;;;;5056446;28;20176;-79
2022/01/22 04:00:37;;;;;;;50.90;2.15;;;;;;;;;;5056801;28;20717;-79
2022/01/22 04:05:31;;;;;;;51.05;2.33;;;;;;;;;;5057582;28;20183;-80
2022/01/22 04:10:25;;;;;;;59.92;3.00;;;5.90;43.30;;;;;;5056612;28;20203;-79
2022/01/22 04:12:59;;;;;;;52.80;2.70;;;5.00;47.60;;;;;;5056780;28;20204;-79
2022/01/22 04:15:27;;;;;;;46.55;3.20;;;4.90;48.60;;;;;;5060902;28;20188;-79
2022/01/22 04:26:02;;;;;;;76.45;3.55;;;;;;;;;;5056591;28;20183;-79
2022/01/22 04:28:27;;;;;;;78.82;2.90;;;6.50;42.10;;;;;;5056819;28;20176;-79
2022/01/22 04:30:53;;;;;;;47.20;2.47;;;6.50;42.40;;;;;;5057584;28;20212;-79
2022/01/22 04:33:19;;;;;;;29.87;1.77;;;;;;;;;;5056879;28;20172;-79
2022/01/22 04:35:45;;;;;;;71.27;3.43;;;6.80;40.90;;;;;;5056365;28;20570;-79
2022/01/22 04:38:11;;;;;;;41.60;2.10;;;;;;;;;;5056476;28;20423;-79
2022/01/22 04:40:37;;;;;;;84.25;3.22;;;;;;;;;;5056643;28;20589;-79
2022/01/22 04:43:04;;;;;;;58.27;2.40;;;;;;;;;;5055689;28;20179;-79
2022/01/22 04:45:49;;;;;;;48.58;2.13;;;6.00;43.00;;;;;;5056722;28;20415;-79
2022/01/22 04:56:49;;;;;;;51.53;2.25;;;;;;;;;;5057841;28;20302;-79
2022/01/22 04:59:15;;;;;;;90.13;4.68;;;;;;;;;;5053056;28;20192;-79
2022/01/22 05:01:41;;;;;;;64.05;2.55;;;;;;;;;;5054892;28;20697;-79
2022/01/22 05:04:07;;;;;;;60.13;2.42;;;;;;;;;;5053834;28;20195;-79
2022/01/22 05:06:33;;;;;;;57.40;2.67;;;;;;;;;;5053319;28;20188;-79
2022/01/22 05:08:59;;;;;;;25.87;1.60;;;;;;;;;;5053354;28;20622;-79
2022/01/22 05:11:25;;;;;;;69.97;2.70;;;;;;;;;;5029862;28;20516;-79
2022/01/22 05:13:52;;;;;;;77.55;3.03;;;6.20;43.40;;;;;;5052745;28;20427;-79
2022/01/22 05:16:18;;;;;;;76.50;3.03;;;;;;;;;;5052226;28;20180;-79
2022/01/22 05:19:10;;;;;;;69.60;2.67;;;;;;;;;;5052620;28;20207;-79
2022/01/22 05:21:35;;;;;;;57.03;2.60;;;6.80;42.40;;;;;;5044357;28;20200;-79
2022/01/22 05:24:05;;;;;;;41.70;2.25;;;6.80;41.90;;;;;;5050330;28;20185;-79
2022/01/22 05:39:24;;;;;;;148.30;4.88;;;;;;;;;;5053294;28;20578;-79
2022/01/22 05:41:51;;;;;;;33.25;1.88;;;7.00;41.50;;;;;;5053819;28;20303;-79
2022/01/22 05:44:17;;;;;;;69.43;2.58;;;6.80;41.60;;;;;;5053803;28;20180;-79
2022/01/22 05:46:43;;;;;;;50.47;2.15;;;6.50;44.00;;;;;;5053994;28;20179;-79
2022/01/22 05:49:10;;;;;;;46.28;2.70;;;5.90;45.40;;;;;;5074520;28;20256;-79
2022/01/22 05:51:38;;;;;;;45.90;2.20;;;5.40;49.00;;;;;;5050358;28;20180;-79
2022/01/22 05:59:37;;;;;;;83.35;3.17;;;;;;;;;;5077472;28;20191;-79
2022/01/22 06:02:07;;;;;;;60.95;2.80;;;5.80;48.60;;;;;;5076563;28;20223;-79
2022/01/22 06:04:33;;;;;;;60.80;2.75;;;;;;;;;;5074417;28;20179;-79
2022/01/22 06:06:59;;;;;;;60.42;2.40;;;5.90;47.40;;;;;;5068534;28;20171;-79
2022/01/22 06:09:26;;;;;;;66.38;3.03;;;;;;;;;;5055577;28;20188;-79
2022/01/22 06:14:18;;;;;;;100.13;3.58;;;6.40;45.90;;;;;;5054916;28;20235;-79
2022/01/22 06:16:44;;;;;;;84.13;3.30;;;;;;;;;;5053794;28;20195;-79
2022/01/22 06:19:10;;;;;;;90.40;3.10;;;5.70;48.50;;;;;;5052143;28;20425;-79
2022/01/22 06:21:36;;;;;;;82.43;2.87;;;6.10;47.50;;;;;;5054209;28;20279;-79
2022/01/22 06:24:02;;;;;;;47.23;2.57;;;;;;;;;;5053259;28;20427;-79
2022/01/22 06:26:28;;;;;;;79.40;3.10;;;;;;;;;;5053799;28;20176;-79
2022/01/22 06:28:54;;;;;;;95.72;3.40;;;;;;;;;;5053798;28;20179;-79
2022/01/22 06:31:20;;;;;;;58.70;2.60;;;;;;;;;;5054039;28;20200;-79
2022/01/22 06:33:46;;;;;;;37.07;2.33;;;;;;;;;;5046434;28;20925;-79
2022/01/22 06:36:12;;;;;;;111.75;3.78;;;;;;;;;;5054242;28;20418;-79
2022/01/22 06:38:38;;;;;;;84.93;3.67;;;5.70;49.50;;;;;;5053671;28;20557;-79
2022/01/22 06:43:48;;;;;;;59.85;2.70;;;6.00;48.90;;;;;;5054181;28;20557;-79
2022/01/22 06:46:14;;;;;;;85.70;3.63;;;;;;;;;;5054317;28;20172;-79
2022/01/22 06:48:41;;;;;;;60.95;3.03;;;6.00;47.30;;;;;;5054272;28;20543;-79
2022/01/22 06:51:06;;;;;;;52.42;4.35;;;5.70;50.00;;;;;;5053944;28;20265;-79
2022/01/22 06:53:36;;;;;;;51.23;2.23;;;;;;;;;;5053496;28;20643;-79
2022/01/22 06:56:04;;;;;;;176.63;5.05;;;;;;;;;;5053760;28;20180;-79
2022/01/22 06:58:30;;;;;;;55.53;2.40;;;;;;;;;;5054094;28;20183;-79
2022/01/22 07:00:56;;;;;;;68.45;2.75;;;5.60;50.70;;;;;;5051971;28;20203;-79
2022/01/22 07:03:22;;;;;;;75.50;2.90;;;5.90;49.00;;;;;;5053680;28;20178;-79
2022/01/22 07:05:47;;;;;;;34.33;2.55;;;5.60;50.30;;;;;;5062156;28;20539;-79
2022/01/22 07:08:13;;;;;;;52.53;2.80;;;5.60;51.00;;;;;;5055742;28;20188;-79
2022/01/22 07:10:39;;;;;;;70.80;2.77;;;;;;;;;;5058974;28;20194;-79
2022/01/22 07:13:05;;;;;;;40.17;2.70;;;;;;;;;;5053081;28;20171;-78
2022/01/22 07:15:31;;;;;;;58.25;2.83;;;;;;;;;;5051507;28;20728;-73
2022/01/22 07:17:57;;;;;;;88.30;3.80;;;5.70;50.50;;;;;;5050261;28;20184;-73
2022/01/22 07:20:29;;;;;;;74.43;2.95;;;;;;;;;;5048528;28;20215;-78
2022/01/22 07:25:24;;;;;;;67.10;2.78;;;;;;;;;;5043020;28;20184;-84
2022/01/22 07:27:50;;;;;;;63.65;2.45;;;;;;;;;;5039685;28;20256;-84
2022/01/22 07:30:16;;;;;;;62.08;3.72;;;;;;;;;;5081816;28;20285;-84
2022/01/22 07:32:44;;;;;;;52.35;2.85;;;;;;;;;;5046010;28;20195;-85
2022/01/22 07:35:11;;;;;;;67.10;3.85;;;;;;;;;;5065573;28;20187;-84
2022/01/22 07:37:37;;;;;;;100.65;3.33;;;;;;;;;;5069150;28;20227;-84
2022/01/22 07:40:08;;;;;;;86.65;3.88;;;6.10;48.60;;;;;;5083417;28;20694;-84
2022/01/22 07:42:34;;;;;;;85.88;3.53;;;;;;;;;;5049948;28;20196;-83
2022/01/22 07:45:00;;;;;;;108.53;3.70;;;;;;;;;;5049850;28;20180;-84
2022/01/22 07:47:26;;;;;;;50.10;2.40;;;;;;;;;;5053587;28;20721;-83
2022/01/22 07:49:52;;;;;;;51.50;2.47;;;;;;;;;;5052871;28;20196;-83
2022/01/22 07:52:18;;;;;;;61.17;2.50;;;;;;;;;;5064952;28;20460;-81
2022/01/22 07:54:44;;;;;;;75.03;3.43;;;;;;;;;;5057383;28;20176;-81
2022/01/22 07:57:10;;;;;;;51.78;2.55;;;;;;;;;;5051123;28;20407;-84
2022/01/22 07:59:36;;;;;;;58.97;2.60;;;;;;;;;;5059417;28;20256;-83
2022/01/22 08:02:03;;;;;;;48.05;2.30;;;;;;;;;;5080072;28;20491;-82
2022/01/22 08:04:29;;;;;;;75.15;3.22;;;;;;;;;;5085651;28;20184;-82
2022/01/22 08:06:57;;;;;;;117.40;4.05;;;;;;;;;;5051976;28;20187;-81
2022/01/22 08:09:23;;;;;;;52.55;2.45;;;;;;;;;;5053653;28;20267;-80
2022/01/22 08:11:49;;;;;;;51.03;2.50;;;;;;;;;;5060252;28;20210;-80
2022/01/22 08:14:15;;;;;;;52.63;3.53;;;5.50;51.60;;;;;;5060843;28;20184;-80
2022/01/22 08:16:41;;;;;;;64.57;3.45;;;;;;;;;;5060310;28;20179;-80
2022/01/22 08:19:07;;;;;;;78.27;3.17;;;;;;;;;;5058921;28;20176;-80
2022/01/22 08:21:33;;;;;;;64.43;3.00;;;;;;;;;;5059737;28;20514;-80
2022/01/22 08:23:59;;;;;;;85.43;4.32;;;;;;;;;;5053982;28;20211;-77
2022/01/22 08:26:30;;;;;;;64.85;4.32;;;;;;;;;;5053694;28;20697;-76
2022/01/22 08:28:58;;;;;;;79.15;3.33;;;;;;;;;;5053492;28;20176;-75
2022/01/22 08:31:44;;;;;;;63.80;3.00;;;6.30;46.00;;;;;;5054657;28;20231;-80
2022/01/22 08:36:54;;;;;;;41.95;2.70;;;;;;;;;;5052904;28;20712;-77
2022/01/22 08:39:20;;;;;;;103.43;3.42;;;6.70;45.60;;;;;;5053445;28;20203;-77
2022/01/22 08:41:46;;;;;;;46.20;2.37;;;6.90;44.30;;;;;;5053618;28;20216;-76
2022/01/22 08:44:12;;;;;;;61.63;3.13;;;6.40;45.90;;;;;;5057269;28;20910;-78
2022/01/22 08:46:39;;;;;;;66.20;3.08;;;;;;;;;;5054841;28;20632;-78
2022/01/22 08:49:06;;;;;;;76.72;3.45;;;;;;;;;;5084674;28;20187;-79
2022/01/22 08:51:33;;;;;;;69.22;3.42;;;5.70;50.90;;;;;;5051761;28;20215;-78
2022/01/22 08:54:01;;;;;;;57.20;2.90;;;;;;;;;;5056820;28;20192;-78
2022/01/22 08:56:27;;;;;;;50.28;3.92;;;;;;;;;;5052051;28;20215;-79
2022/01/22 08:58:53;;;;;;;64.68;3.00;;;;;;;;;;5056070;28;20631;-79
2022/01/22 09:01:19;;;;;;;48.67;2.22;;;;;;;;;;5074687;28;20236;-80
2022/01/22 09:03:46;;;;;;;107.72;4.38;;;5.70;50.10;;;;;;5059681;28;20180;-79
2022/01/22 09:06:12;;;;;;;131.30;4.07;;;6.00;48.90;;;;;;5059131;28;20176;-79
2022/01/22 09:08:40;;;;;;;70.07;2.85;;;6.20;47.30;;;;;;5060309;28;20172;-80
2022/01/22 09:11:06;;;;;;;55.10;2.80;;;;;;;;;;5060801;28;20222;-79
2022/01/22 09:13:33;;;;;;;53.33;3.42;;;6.40;48.20;;;;;;5059052;28;20808;-79
2022/01/22 09:16:00;;;;;;;120.32;3.85;;;6.60;46.00;;;;;;5059241;28;20183;-80
2022/01/22 09:18:26;;;;;;;87.43;3.80;;;;;;;;;;5058014;28;20191;-80
2022/01/22 09:21:02;;;;;;;61.90;3.08;;;;;;;;;;5058282;28;20202;-81
2022/01/22 09:23:29;;;;;;;84.63;3.67;;;;;;;;;;5058024;28;20254;-81
2022/01/22 09:25:56;;;;;;;80.78;4.07;;;;;;;;;;5060482;28;20673;-79
2022/01/22 09:28:22;;;;;;;149.50;4.30;;;7.50;42.50;;;;;;5060143;28;20589;-81
2022/01/22 09:30:48;;;;;;;59.20;3.10;;;7.10;43.80;;;;;;5060115;28;20192;-80
2022/01/22 09:33:14;;;;;;;44.50;2.43;;;6.70;46.10;;;;;;5060849;28;20421;-80
2022/01/22 09:35:40;;;;;;;72.53;2.80;;;6.80;45.10;;;;;;5061597;28;20184;-79
2022/01/22 09:38:06;;;;;;;59.70;3.80;;;;;;;;;;5058721;28;20176;-79
2022/01/22 09:40:32;;;;;;;64.07;3.00;;;;;;;;;;5058656;28;20270;-79
2022/01/22 09:42:59;;;;;;;49.22;2.85;;;6.10;49.60;;;;;;5056878;28;20176;-79
2022/01/22 09:45:26;;;;;;;58.53;4.32;;;;;;;;;;5055809;28;20183;-78
2022/01/22 09:47:52;;;;;;;50.38;2.72;;;5.40;55.40;;;;;;5062483;28;20202;-78
2022/01/22 09:50:19;;;;;;;40.65;2.53;;;;;;;;;;5056493;28;20208;-79
2022/01/22 09:52:46;;;;;;;57.80;3.45;;;;;;;;;;5080511;28;20207;-78
2022/01/22 09:55:12;;;;;;;143.52;4.32;;;;;;;;;;5054403;28;20198;-78
2022/01/22 09:57:38;;;;;;;83.72;4.63;;;;;;;;;;5047961;28;20175;-78
2022/01/22 10:00:08;;;;;;;36.42;2.78;;;;;;;;;;5056388;28;20547;-79
2022/01/22 10:02:43;;;;;;;64.60;3.25;;;7.00;46.40;;;;;;5056353;28;20184;-78
2022/01/22 10:05:28;;;;;;;88.20;3.38;;;;;;;;;;5049961;28;20195;-79
2022/01/22 10:07:54;;;;;;;50.15;3.95;;;;;;;;;;5057791;28;20195;-78
2022/01/22 10:10:20;;;;;;;78.45;3.80;;;;;;;;;;5058465;28;20686;-78
2022/01/22 10:12:48;;;;;;;81.18;3.80;;;;;;;;;;5057790;28;20222;-79
2022/01/22 10:15:14;;;;;;;65.75;3.08;;;;;;;;;;5057705;28;20446;-79
2022/01/22 10:17:40;;;;;;;58.30;3.00;;;;;;;;;;5073481;28;20599;-78
2022/01/22 10:20:27;;;;;;;95.22;3.65;;;7.60;47.40;;;;;;5056299;28;20489;-79
2022/01/22 10:22:57;;;;;;;71.80;3.40;;;7.90;45.90;;;;;;5058378;28;20221;-79
2022/01/22 10:25:27;;;;;;;64.85;3.08;;;;;;;;;;5058468;28;20179;-79
2022/01/22 10:28:00;;;;;;;47.40;3.13;;;;;;;;;;5057571;28;20241;-78
2022/01/22 10:30:35;;;;;;;92.00;3.92;;;;;;;;;;5057261;28;20203;-78
2022/01/22 10:33:17;;;;;;;53.63;2.83;;;7.70;45.30;;;;;;5057379;28;20226;-79
2022/01/22 10:35:43;;;;;;;36.38;2.85;;;7.80;45.60;;;;;;5057610;28;20176;-79
2022/01/22 10:38:10;;;;;;;32.33;2.60;;;;;;;;;;5057847;28;20272;-79
2022/01/22 10:40:38;;;;;;;70.13;3.33;;;7.80;44.10;;;;;;5057511;28;20713;-79
2022/01/22 10:43:11;;;;;;;91.80;3.75;;;;;;;;;;5056242;28;20184;-79
2022/01/22 10:45:40;;;;;;;37.20;2.40;;;;;;;;;;5057364;28;20180;-79
2022/01/22 10:48:22;;;;;;;81.63;2.92;;;7.60;44.10;;;;;;5057253;28;20168;-79
2022/01/22 10:51:01;;;;;;;71.43;3.28;;;;;;;;;;5073684;28;20196;-79
2022/01/22 10:54:00;;;;;;;61.83;3.45;;;6.60;50.20;;;;;;5049273;28;20250;-78
2022/01/22 10:56:30;;;;;;;69.53;3.60;;;6.60;50.00;;;;;;5045213;28;20184;-78
2022/01/22 10:58:56;;;;;;;66.72;2.97;;;7.00;48.90;;;;;;5057944;28;20171;-79
2022/01/22 11:01:23;;;;;;;88.77;3.50;;;;;;;;;;5057092;28;20211;-79
2022/01/22 11:04:10;;;;;;;46.15;2.50;;;;;;;;;;5058133;28;20188;-79
2022/01/22 11:06:36;;;;;;;78.47;3.83;;;7.70;45.40;;;;;;5050094;28;20184;-79
2022/01/22 11:09:04;;;;;;;79.55;2.90;;;;;;;;;;5058005;28;20279;-79
2022/01/22 11:11:35;;;;;;;76.13;2.72;;;;;;;;;;5057354;28;20242;-79
2022/01/22 11:14:01;;;;;;;53.78;2.70;;;7.80;46.00;;;;;;5085713;28;20530;-80
2022/01/22 11:16:28;;;;;;;118.03;3.90;;;;;;;;;;5060261;28;20180;-80
2022/01/22 11:18:54;;;;;;;44.03;2.10;;;;;;;;;;5067704;28;20182;-80
2022/01/22 11:21:20;;;;;;;100.53;3.50;;;;;;;;;;5060743;28;20204;-79
2022/01/22 11:23:47;;;;;;;87.57;3.08;;;7.60;46.40;;;;;;5057838;28;20426;-80
2022/01/22 11:26:14;;;;;;;163.73;5.05;;;;;;;;;;5056262;28;20187;-79
2022/01/22 11:28:41;;;;;;;87.97;3.55;;;;;;;;;;5051003;28;20182;-78
2022/01/22 11:31:08;;;;;;;69.85;2.90;;;;;;;;;;5054238;28;20204;-78
2022/01/22 11:33:37;;;;;;;84.82;3.85;;;6.80;53.00;;;;;;5055395;28;20206;-78
2022/01/22 11:36:07;;;;;;;75.00;2.67;;;;;;;;;;5053503;28;20200;-79
2022/01/22 11:38:38;;;;;;;90.05;3.25;;;7.10;49.90;;;;;;5055120;28;20192;-79
2022/01/22 11:41:09;;;;;;;55.50;2.55;;;;;;;;;;5054812;28;20199;-79
2022/01/22 11:43:55;;;;;;;100.95;3.97;;;;;;;;;;5055603;28;20184;-79
2022/01/22 11:46:28;;;;;;;63.20;2.78;;;;;;;;;;5058482;28;20191;-79
2022/01/22 11:49:12;;;;;;;62.17;2.83;;;;;;;;;;5066563;28;20176;-80
2022/01/22 11:51:39;;;;;;;112.47;4.60;;;;;;;;;;5085703;28;20211;-78
2022/01/22 11:54:05;;;;;;;62.10;2.40;;;;;;;;;;5059735;28;20249;-80
2022/01/22 11:56:40;;;;;;;59.45;2.80;;;5.80;59.70;;;;;;5061685;28;20462;-79
2022/01/22 11:59:12;;;;;;;81.57;3.30;;;6.40;57.00;;;;;;5054486;28;20179;-79
2022/01/22 12:04:15;;;;;;;101.38;3.65;;;;;;;;;;5059072;28;20179;-79
2022/01/22 12:07:00;;;;;;;62.47;2.78;;;6.80;54.20;;;;;;5058190;28;20179;-83
2022/01/22 12:09:26;;;;;;;76.25;3.63;;;;;;;;;;5054874;28;20191;-83
2022/01/22 12:14:48;;;;;;;90.53;3.40;;;;;;;;;;5054490;28;20294;-83
2022/01/22 12:17:20;;;;;;;44.38;2.33;;;;;;;;;;5053437;28;20187;-83
2022/01/22 12:20:16;;;;;;;83.65;3.85;;;8.00;48.10;;;;;;5056791;28;20207;-84
2022/01/22 12:22:35;;;;;;;61.53;2.90;;;;;;;;;;5043193;28;20188;-82
2022/01/22 12:25:04;;;;;;;50.10;3.60;;;;;;;;;;5057295;28;20183;-82
2022/01/22 12:27:46;;;;;;;32.35;1.85;;;;;;;;;;5066050;28;20683;-79
2022/01/22 12:30:13;;;;;;;82.35;3.25;;;;;;;;;;5071613;28;20180;-78
2022/01/22 12:32:46;;;;;;;62.30;2.95;;;;;;;;;;5079347;28;20216;-77
2022/01/22 12:35:15;;;;;;;78.15;2.92;;;;;;;;;;5101562;28;20177;-78
2022/01/22 12:37:45;;;;;;;123.00;5.07;;;;;;;;;;5068119;28;20180;-80
2022/01/22 12:40:12;;;;;;;70.13;3.30;;;;;;;;;;5061596;28;20646;-79
2022/01/22 12:42:56;;;;;;;81.80;3.95;;;7.80;49.50;;;;;;5060291;28;20183;-79
2022/01/22 12:45:25;;;;;;;33.55;3.05;;;7.80;48.40;;;;;;5054334;28;20532;-79
2022/01/22 12:47:51;;;;;;;89.35;3.55;;;;;;;;;;5057472;28;20184;-79
2022/01/22 12:50:23;;;;;;;57.22;2.92;;;;;;;;;;5058893;28;20215;-80
2022/01/22 12:52:51;;;;;;;52.35;2.40;;;;;;;;;;5053578;28;20276;-75
2022/01/22 12:55:19;;;;;;;62.05;2.67;;;8.00;49.90;;;;;;5052866;28;20271;-81
2022/01/22 12:57:45;;;;;;;49.83;2.55;;;8.00;49.50;;;;;;5081937;28;20207;-76
2022/01/22 13:00:15;;;;;;;97.33;4.10;;;;;;;;;;5052858;28;20196;-75
2022/01/22 13:02:54;;;;;;;76.78;3.75;;;8.00;49.00;;;;;;5054067;28;20461;-75
2022/01/22 13:05:21;;;;;;;45.38;2.58;;;;;;;;;;5053021;28;20183;-76
2022/01/22 13:07:55;;;;;;;51.08;2.70;;;8.10;47.30;;;;;;5053535;28;20667;-85
2022/01/22 13:10:25;;;;;;;83.60;3.20;;;;;;;;;;5056378;28;20204;-77
2022/01/22 13:12:53;;;;;;;47.70;2.95;;;8.20;47.40;;;;;;5054667;28;20632;-77
2022/01/22 13:15:19;;;;;;;50.15;2.42;;;;;;;;;;5053638;28;20187;-78
2022/01/22 13:17:51;;;;;;;53.55;2.72;;;;;;;;;;5085563;28;20732;-79
2022/01/22 13:20:21;;;;;;;69.90;2.95;;;;;;;;;;5054904;28;20229;-84
2022/01/22 13:22:48;;;;;;;54.88;2.97;;;;;;;;;;5061447;28;20179;-75
2022/01/22 13:25:15;;;;;;;136.85;4.40;;;8.20;46.40;;;;;;5053454;28;20176;-75
2022/01/22 13:27:42;;;;;;;95.40;4.00;;;;;;;;;;5051825;28;20282;-75
2022/01/22 13:30:09;;;;;;;65.28;3.22;;;;;;;;;;5051891;28;20200;-74
2022/01/22 13:32:54;;;;;;;113.13;4.15;;;8.20;46.40;;;;;;5045527;28;20234;-77
2022/01/22 13:49:02;;;;;;;53.85;3.05;;;;;;;;;;5058164;28;20192;-78
2022/01/22 13:51:28;;;;;;;81.68;3.28;;;;;;;;;;5047664;28;20266;-78
2022/01/22 13:53:56;;;;;;;51.58;2.67;;;8.40;43.40;;;;;;5055684;28;20207;-78
2022/01/22 13:56:53;;;;;;;46.70;3.05;;;8.60;43.20;;;;;;5054403;28;20188;-76
2022/01/22 13:59:28;;;;;;;88.72;3.45;;;8.90;42.30;;;;;;5084569;28;20601;-78
2022/01/22 14:02:07;;;;;;;49.25;2.47;;;;;;;;;;5055921;28;20223;-78
2022/01/22 14:04:45;;;;;;;85.25;3.25;;;;;;;;;;5055174;28;20244;-79
2022/01/22 14:07:38;;;;;;;58.20;2.85;;;8.60;44.20;;;;;;5063047;28;20183;-81
2022/01/22 14:10:07;;;;;;;59.80;3.40;;;8.40;44.00;;;;;;5055175;28;20193;-78
2022/01/22 14:12:45;;;;;;;78.88;3.13;;;7.60;46.90;;;;;;5054916;28;20204;-78
2022/01/22 14:15:13;;;;;;;49.20;3.42;;;;;;;;;;5056010;28;20605;-78
2022/01/22 14:18:13;;;;;;;54.63;3.28;;;8.50;44.60;;;;;;5055376;28;20218;-78
2022/01/22 14:20:39;;;;;;;61.25;2.90;;;;;;;;;;5054554;28;20262;-78
2022/01/22 14:23:07;;;;;;;47.85;2.63;;;;;;;;;;5079661;28;20211;-78
2022/01/22 14:25:34;;;;;;;86.10;3.17;;;;;;;;;;5056072;28;20194;-79
2022/01/22 14:28:03;;;;;;;54.97;2.20;;;;;;;;;;5055161;28;20176;-78
2022/01/22 14:30:46;;;;;;;129.00;4.10;;;9.10;42.40;;;;;;5055800;28;20224;-79
2022/01/22 14:33:14;;;;;;;65.35;3.40;;;;;;;;;;5055619;28;20290;-78
2022/01/22 14:35:41;;;;;;;81.38;3.42;;;;;;;;;;5055399;28;20254;-78
2022/01/22 14:38:19;;;;;;;55.83;2.80;;;;;;;;;;5056228;28;20169;-78
2022/01/22 14:46:44;;;;;;;76.53;2.88;;;;;;;;;;5055654;28;20546;-78
2022/01/22 14:49:10;;;;;;;55.13;2.75;;;;;;;;;;5055491;28;20199;-78
2022/01/22 14:51:36;;;;;;;65.95;3.35;;;;;;;;;;5055779;28;20204;-77
2022/01/22 14:54:02;;;;;;;19.63;1.97;;;;;;;;;;5056078;28;20183;-78
2022/01/22 14:56:28;;;;;;;65.97;3.33;;;;;;;;;;5055750;28;20728;-79
2022/01/22 14:58:54;;;;;;;32.78;2.80;;;;;;;;;;5055024;28;20173;-78
2022/01/22 15:01:20;;;;;;;82.60;3.70;;;;;;;;;;5087499;28;20667;-78
2022/01/22 15:03:46;;;;;;;68.53;3.33;;;;;;;;;;5054968;28;20427;-79
2022/01/22 15:06:12;;;;;;;106.00;4.20;;;;;;;;;;5055326;28;20427;-77
2022/01/22 15:08:38;;;;;;;55.92;2.50;;;;;;;;;;5055523;28;20179;-77
2022/01/22 15:11:05;;;;;;;30.25;2.15;;;;;;;;;;5055533;28;20200;-78
2022/01/22 15:13:31;;;;;;;47.75;2.67;;;;;;;;;;5054251;28;20203;-78
2022/01/22 15:16:01;;;;;;;60.33;2.72;;;;;;;;;;5054997;28;20211;-78
2022/01/22 15:18:50;;;;;;;50.67;2.47;;;;;;;;;;5058065;28;20671;-78
2022/01/22 15:21:13;;;;;;;43.22;4.10;;;;;;;;;;5052119;28;20210;-79
2022/01/22 15:23:39;;;;;;;83.90;4.28;;;8.80;41.30;;;;;;5059776;28;20176;-78
2022/01/22 15:26:06;;;;;;;126.88;5.03;;;8.80;41.60;;;;;;5059157;28;20199;-78
2022/01/22 15:28:41;;;;;;;77.10;3.80;;;8.80;41.80;;;;;;5059678;28;20203;-78
2022/01/22 15:31:15;;;;;;;48.25;2.40;;;;;;;;;;5057260;28;20207;-78
2022/01/22 15:33:52;;;;;;;59.83;2.70;;;;;;;;;;5059652;28;20182;-78
2022/01/22 15:36:18;;;;;;;82.40;4.47;;;9.00;41.20;;;;;;5091927;28;20226;-78
2022/01/22 15:38:44;;;;;;;64.07;3.30;;;;;;;;;;5058914;28;20204;-78
2022/01/22 15:41:10;;;;;;;38.58;2.72;;;;;;;;;;5059009;28;20533;-78
2022/01/22 15:43:36;;;;;;;71.00;3.13;;;;;;;;;;5059473;28;20255;-78
2022/01/22 15:46:02;;;;;;;211.53;6.00;;;;;;;;;;5058451;28;20509;-78
2022/01/22 15:48:29;;;;;;;80.80;3.22;;;7.80;44.50;;;;;;5058145;28;20414;-78
2022/01/22 15:50:55;;;;;;;81.00;4.10;;;;;;;;;;5058542;28;20235;-78
2022/01/22 15:53:21;;;;;;;49.63;2.88;;;;;;;;;;5056782;28;20179;-76
2022/01/22 15:55:50;;;;;;;71.70;3.53;;;7.60;46.10;;;;;;5054387;28;20183;-77